sensor_id;sensor_type;location;lat;lon;timestamp;temperature;humidity
14252;DHT22;7210;51.502;10.722;2023-08-06T00:01:26;14.60;99.90
14252;DHT22;7210;51.502;10.722;2023-08-06T00:03:53;14.60;99.90
14252;DHT22;7210;51.502;10.722;2023-08-06T00:06:20;14.60;99.90
14252;DHT22;7210;51.502;10.722;2023-08-06T00:08:47;14.50;99.90
14252;DHT22;7210;51.502;10.722;2023-08-06T00:11:15;14.50;99.90
14252;DHT22;7210;51.502;10.722;2023-08-06T00:13:42;14.50;99.90
14252;DHT22;7210;51.502;10.722;2023-08-06T00:16:12;14.50;99.90
14252;DHT22;7210;51.502;10.722;2023-08-06T00:18:40;14.40;99.90
14252;DHT22;7210;51.502;10.722;2023-08-06T00:21:07;14.30;99.90
14252;DHT22;7210;51.502;10.722;2023-08-06T00:23:35;14.40;99.90
14252;DHT22;7210;51.502;10.722;2023-08-06T00:26:08;14.40;99.90
14252;DHT22;7210;51.502;10.722;2023-08-06T00:28:35;14.40;99.90
14252;DHT22;7210;51.502;10.722;2023-08-06T00:31:08;14.40;99.90
14252;DHT22;7210;51.502;10.722;2023-08-06T00:33:36;14.30;99.90
14252;DHT22;7210;51.502;10.722;2023-08-06T00:36:08;14.30;99.90
14252;DHT22;7210;51.502;10.722;2023-08-06T00:38:35;14.30;99.90
14252;DHT22;7210;51.502;10.722;2023-08-06T00:41:08;14.30;99.90
14252;DHT22;7210;51.502;10.722;2023-08-06T00:43:36;14.30;99.90
14252;DHT22;7210;51.502;10.722;2023-08-06T00:46:04;14.30;99.90
14252;DHT22;7210;51.502;10.722;2023-08-06T00:48:32;14.30;99.90
14252;DHT22;7210;51.502;10.722;2023-08-06T00:51:01;14.30;99.90
14252;DHT22;7210;51.502;10.722;2023-08-06T00:53:29;14.20;99.90
14252;DHT22;7210;51.502;10.722;2023-08-06T00:55:57;14.30;99.90
14252;DHT22;7210;51.502;10.722;2023-08-06T00:58:25;14.30;99.90
14252;DHT22;7210;51.502;10.722;2023-08-06T01:00:53;14.30;99.90
14252;DHT22;7210;51.502;10.722;2023-08-06T01:03:20;14.30;99.90
14252;DHT22;7210;51.502;10.722;2023-08-06T01:05:48;14.30;99.90
14252;DHT22;7210;51.502;10.722;2023-08-06T01:08:27;14.30;99.90
14252;DHT22;7210;51.502;10.722;2023-08-06T01:11:12;14.30;99.90
14252;DHT22;7210;51.502;10.722;2023-08-06T01:13:47;14.40;99.90
14252;DHT22;7210;51.502;10.722;2023-08-06T01:16:20;14.40;99.90
14252;DHT22;7210;51.502;10.722;2023-08-06T01:18:48;14.40;99.90
14252;DHT22;7210;51.502;10.722;2023-08-06T01:21:17;14.40;99.90
14252;DHT22;7210;51.502;10.722;2023-08-06T01:23:46;14.40;99.90
14252;DHT22;7210;51.502;10.722;2023-08-06T01:26:19;14.40;99.90
14252;DHT22;7210;51.502;10.722;2023-08-06T01:28:58;14.30;99.90
14252;DHT22;7210;51.502;10.722;2023-08-06T01:31:32;14.30;99.90
14252;DHT22;7210;51.502;10.722;2023-08-06T01:34:04;14.30;99.90
14252;DHT22;7210;51.502;10.722;2023-08-06T01:36:35;14.30;99.90
14252;DHT22;7210;51.502;10.722;2023-08-06T01:39:04;14.30;99.90
14252;DHT22;7210;51.502;10.722;2023-08-06T01:41:32;14.30;99.90
14252;DHT22;7210;51.502;10.722;2023-08-06T01:43:59;14.30;99.90
14252;DHT22;7210;51.502;10.722;2023-08-06T01:46:26;14.30;96.50
14252;DHT22;7210;51.502;10.722;2023-08-06T01:48:56;14.30;99.90
14252;DHT22;7210;51.502;10.722;2023-08-06T01:51:23;14.30;99.90
14252;DHT22;7210;51.502;10.722;2023-08-06T01:53:52;14.30;99.90
14252;DHT22;7210;51.502;10.722;2023-08-06T01:56:19;14.30;99.90
14252;DHT22;7210;51.502;10.722;2023-08-06T01:58:46;14.30;99.90
14252;DHT22;7210;51.502;10.722;2023-08-06T02:01:13;14.20;99.90
14252;DHT22;7210;51.502;10.722;2023-08-06T02:03:41;14.30;99.90
14252;DHT22;7210;51.502;10.722;2023-08-06T02:06:14;14.20;99.90
14252;DHT22;7210;51.502;10.722;2023-08-06T02:08:41;14.20;99.90
14252;DHT22;7210;51.502;10.722;2023-08-06T02:11:10;14.20;99.90
14252;DHT22;7210;51.502;10.722;2023-08-06T02:13:37;14.20;99.90
14252;DHT22;7210;51.502;10.722;2023-08-06T02:16:06;14.20;99.90
14252;DHT22;7210;51.502;10.722;2023-08-06T02:18:35;14.10;99.90
14252;DHT22;7210;51.502;10.722;2023-08-06T02:21:02;14.00;99.90
14252;DHT22;7210;51.502;10.722;2023-08-06T02:23:30;13.90;99.90
14252;DHT22;7210;51.502;10.722;2023-08-06T02:25:58;13.90;99.90
14252;DHT22;7210;51.502;10.722;2023-08-06T02:28:29;13.80;99.90
14252;DHT22;7210;51.502;10.722;2023-08-06T02:31:02;13.80;99.90
14252;DHT22;7210;51.502;10.722;2023-08-06T02:33:29;13.80;99.90
14252;DHT22;7210;51.502;10.722;2023-08-06T02:35:59;13.80;87.10
14252;DHT22;7210;51.502;10.722;2023-08-06T02:38:28;13.80;83.50
14252;DHT22;7210;51.502;10.722;2023-08-06T02:40:56;13.90;79.60
14252;DHT22;7210;51.502;10.722;2023-08-06T02:43:26;13.90;70.30
14252;DHT22;7210;51.502;10.722;2023-08-06T02:45:57;13.90;57.80
14252;DHT22;7210;51.502;10.722;2023-08-06T02:48:26;13.90;49.30
14252;DHT22;7210;51.502;10.722;2023-08-06T02:50:56;13.90;45.30
14252;DHT22;7210;51.502;10.722;2023-08-06T02:53:25;13.90;49.00
14252;DHT22;7210;51.502;10.722;2023-08-06T02:55:52;13.90;44.80
14252;DHT22;7210;51.502;10.722;2023-08-06T02:58:25;13.90;48.40
14252;DHT22;7210;51.502;10.722;2023-08-06T03:01:08;13.90;41.00
14252;DHT22;7210;51.502;10.722;2023-08-06T03:03:44;13.90;61.60
14252;DHT22;7210;51.502;10.722;2023-08-06T03:06:18;13.90;80.40
14252;DHT22;7210;51.502;10.722;2023-08-06T03:08:49;13.80;73.90
14252;DHT22;7210;51.502;10.722;2023-08-06T03:11:16;13.90;54.40
14252;DHT22;7210;51.502;10.722;2023-08-06T03:13:43;13.90;48.40
14252;DHT22;7210;51.502;10.722;2023-08-06T03:16:12;13.90;57.80
14252;DHT22;7210;51.502;10.722;2023-08-06T03:18:44;13.90;53.10
14252;DHT22;7210;51.502;10.722;2023-08-06T03:21:26;13.80;53.10
14252;DHT22;7210;51.502;10.722;2023-08-06T03:23:53;13.80;44.20
14252;DHT22;7210;51.502;10.722;2023-08-06T03:26:24;13.80;35.60
14252;DHT22;7210;51.502;10.722;2023-08-06T03:28:51;13.80;44.60
14252;DHT22;7210;51.502;10.722;2023-08-06T03:31:21;13.90;39.10
14252;DHT22;7210;51.502;10.722;2023-08-06T03:33:48;13.90;37.00
14252;DHT22;7210;51.502;10.722;2023-08-06T03:36:22;13.90;26.10
14252;DHT22;7210;51.502;10.722;2023-08-06T03:38:56;14.00;26.50
14252;DHT22;7210;51.502;10.722;2023-08-06T03:41:23;13.90;25.40
14252;DHT22;7210;51.502;10.722;2023-08-06T03:43:50;13.90;26.40
14252;DHT22;7210;51.502;10.722;2023-08-06T03:46:25;14.00;24.30
14252;DHT22;7210;51.502;10.722;2023-08-06T03:48:53;14.00;22.80
14252;DHT22;7210;51.502;10.722;2023-08-06T03:51:20;14.00;18.90
14252;DHT22;7210;51.502;10.722;2023-08-06T03:53:48;14.00;21.70
14252;DHT22;7210;51.502;10.722;2023-08-06T03:56:16;14.10;26.00
14252;DHT22;7210;51.502;10.722;2023-08-06T03:58:43;14.10;26.40
14252;DHT22;7210;51.502;10.722;2023-08-06T04:01:10;14.10;22.90
14252;DHT22;7210;51.502;10.722;2023-08-06T04:03:45;14.10;30.10
14252;DHT22;7210;51.502;10.722;2023-08-06T04:06:13;14.10;38.70
14252;DHT22;7210;51.502;10.722;2023-08-06T04:08:44;14.10;39.20
14252;DHT22;7210;51.502;10.722;2023-08-06T04:11:11;14.10;44.80
14252;DHT22;7210;51.502;10.722;2023-08-06T04:13:42;14.10;47.40
14252;DHT22;7210;51.502;10.722;2023-08-06T04:16:10;14.10;57.30
14252;DHT22;7210;51.502;10.722;2023-08-06T04:18:39;14.10;62.10
14252;DHT22;7210;51.502;10.722;2023-08-06T04:21:07;14.10;60.30
14252;DHT22;7210;51.502;10.722;2023-08-06T04:23:35;14.10;72.00
14252;DHT22;7210;51.502;10.722;2023-08-06T04:26:05;14.10;79.10
14252;DHT22;7210;51.502;10.722;2023-08-06T04:28:34;14.00;87.00
14252;DHT22;7210;51.502;10.722;2023-08-06T04:31:02;14.00;69.00
14252;DHT22;7210;51.502;10.722;2023-08-06T04:33:32;14.00;59.00
14252;DHT22;7210;51.502;10.722;2023-08-06T04:36:04;14.00;55.50
14252;DHT22;7210;51.502;10.722;2023-08-06T04:38:34;14.00;59.20
14252;DHT22;7210;51.502;10.722;2023-08-06T04:41:02;14.00;62.50
14252;DHT22;7210;51.502;10.722;2023-08-06T04:43:30;14.00;60.70
14252;DHT22;7210;51.502;10.722;2023-08-06T04:45:57;14.10;61.30
14252;DHT22;7210;51.502;10.722;2023-08-06T04:48:24;14.10;49.40
14252;DHT22;7210;51.502;10.722;2023-08-06T04:50:52;14.20;41.90
14252;DHT22;7210;51.502;10.722;2023-08-06T04:53:20;14.30;38.50
14252;DHT22;7210;51.502;10.722;2023-08-06T04:55:48;14.30;50.30
14252;DHT22;7210;51.502;10.722;2023-08-06T04:58:16;14.30;60.90
14252;DHT22;7210;51.502;10.722;2023-08-06T05:00:43;14.40;58.80
14252;DHT22;7210;51.502;10.722;2023-08-06T05:03:14;14.40;61.80
14252;DHT22;7210;51.502;10.722;2023-08-06T05:05:41;14.40;89.10
14252;DHT22;7210;51.502;10.722;2023-08-06T05:08:14;14.40;99.90
14252;DHT22;7210;51.502;10.722;2023-08-06T05:10:43;14.40;99.90
14252;DHT22;7210;51.502;10.722;2023-08-06T05:13:12;14.50;99.90
14252;DHT22;7210;51.502;10.722;2023-08-06T05:15:41;14.50;99.90
14252;DHT22;7210;51.502;10.722;2023-08-06T05:18:11;14.60;99.90
14252;DHT22;7210;51.502;10.722;2023-08-06T05:20:40;14.60;99.90
14252;DHT22;7210;51.502;10.722;2023-08-06T05:23:08;14.60;99.90
14252;DHT22;7210;51.502;10.722;2023-08-06T05:25:36;14.70;99.90
14252;DHT22;7210;51.502;10.722;2023-08-06T05:28:04;14.70;99.90
14252;DHT22;7210;51.502;10.722;2023-08-06T05:30:33;14.80;99.90
14252;DHT22;7210;51.502;10.722;2023-08-06T05:33:08;14.80;99.90
14252;DHT22;7210;51.502;10.722;2023-08-06T05:35:35;14.80;99.90
14252;DHT22;7210;51.502;10.722;2023-08-06T05:38:03;14.90;99.90
14252;DHT22;7210;51.502;10.722;2023-08-06T05:40:30;14.90;99.90
14252;DHT22;7210;51.502;10.722;2023-08-06T05:43:00;14.90;99.90
14252;DHT22;7210;51.502;10.722;2023-08-06T05:45:28;15.00;99.90
14252;DHT22;7210;51.502;10.722;2023-08-06T05:47:56;14.90;99.90
14252;DHT22;7210;51.502;10.722;2023-08-06T05:50:24;14.90;99.90
14252;DHT22;7210;51.502;10.722;2023-08-06T05:52:52;14.90;99.90
14252;DHT22;7210;51.502;10.722;2023-08-06T05:55:20;15.00;99.90
14252;DHT22;7210;51.502;10.722;2023-08-06T05:57:50;15.00;99.90
14252;DHT22;7210;51.502;10.722;2023-08-06T06:00:18;15.00;99.90
14252;DHT22;7210;51.502;10.722;2023-08-06T06:02:46;15.00;99.90
14252;DHT22;7210;51.502;10.722;2023-08-06T06:05:14;15.00;99.90
14252;DHT22;7210;51.502;10.722;2023-08-06T06:07:42;15.10;99.90
14252;DHT22;7210;51.502;10.722;2023-08-06T06:10:09;15.10;99.90
14252;DHT22;7210;51.502;10.722;2023-08-06T06:12:38;15.20;99.90
14252;DHT22;7210;51.502;10.722;2023-08-06T06:15:14;15.20;99.90
14252;DHT22;7210;51.502;10.722;2023-08-06T06:17:41;15.30;99.90
14252;DHT22;7210;51.502;10.722;2023-08-06T06:20:09;15.30;99.90
14252;DHT22;7210;51.502;10.722;2023-08-06T06:22:39;15.40;99.90
14252;DHT22;7210;51.502;10.722;2023-08-06T06:25:07;15.50;99.90
14252;DHT22;7210;51.502;10.722;2023-08-06T06:27:35;15.50;99.90
14252;DHT22;7210;51.502;10.722;2023-08-06T06:30:03;15.60;99.90
14252;DHT22;7210;51.502;10.722;2023-08-06T06:32:31;15.70;99.90
14252;DHT22;7210;51.502;10.722;2023-08-06T06:35:00;15.70;99.90
14252;DHT22;7210;51.502;10.722;2023-08-06T06:37:27;15.80;99.90
14252;DHT22;7210;51.502;10.722;2023-08-06T06:39:57;15.90;99.90
14252;DHT22;7210;51.502;10.722;2023-08-06T06:42:25;16.00;99.90
14252;DHT22;7210;51.502;10.722;2023-08-06T06:44:58;16.00;99.90
14252;DHT22;7210;51.502;10.722;2023-08-06T06:47:26;16.10;99.90
14252;DHT22;7210;51.502;10.722;2023-08-06T06:49:53;16.10;99.90
14252;DHT22;7210;51.502;10.722;2023-08-06T06:52:20;16.20;99.90
14252;DHT22;7210;51.502;10.722;2023-08-06T06:54:48;16.10;99.90
14252;DHT22;7210;51.502;10.722;2023-08-06T06:57:17;16.10;99.90
14252;DHT22;7210;51.502;10.722;2023-08-06T06:59:44;16.10;99.90
14252;DHT22;7210;51.502;10.722;2023-08-06T07:02:11;16.10;99.90
14252;DHT22;7210;51.502;10.722;2023-08-06T07:04:39;16.30;99.90
14252;DHT22;7210;51.502;10.722;2023-08-06T07:07:06;16.50;99.90
14252;DHT22;7210;51.502;10.722;2023-08-06T07:09:33;16.60;99.90
14252;DHT22;7210;51.502;10.722;2023-08-06T07:12:01;16.40;99.90
14252;DHT22;7210;51.502;10.722;2023-08-06T07:14:33;16.70;99.90
14252;DHT22;7210;51.502;10.722;2023-08-06T07:17:01;16.60;99.90
14252;DHT22;7210;51.502;10.722;2023-08-06T07:19:29;16.60;99.90
14252;DHT22;7210;51.502;10.722;2023-08-06T07:21:57;16.70;1.00
14252;DHT22;7210;51.502;10.722;2023-08-06T07:24:24;16.90;99.90
14252;DHT22;7210;51.502;10.722;2023-08-06T07:26:56;17.10;1.00
14252;DHT22;7210;51.502;10.722;2023-08-06T07:29:23;17.10;1.00
14252;DHT22;7210;51.502;10.722;2023-08-06T07:31:53;17.20;1.00
14252;DHT22;7210;51.502;10.722;2023-08-06T07:34:22;17.00;1.00
14252;DHT22;7210;51.502;10.722;2023-08-06T07:36:50;17.00;1.00
14252;DHT22;7210;51.502;10.722;2023-08-06T07:39:19;16.90;1.00
14252;DHT22;7210;51.502;10.722;2023-08-06T07:41:50;16.80;1.00
14252;DHT22;7210;51.502;10.722;2023-08-06T07:44:20;16.60;1.00
14252;DHT22;7210;51.502;10.722;2023-08-06T07:46:50;16.60;1.00
14252;DHT22;7210;51.502;10.722;2023-08-06T07:49:19;16.80;1.00
14252;DHT22;7210;51.502;10.722;2023-08-06T07:51:47;17.10;1.00
14252;DHT22;7210;51.502;10.722;2023-08-06T07:54:26;17.10;1.00
14252;DHT22;7210;51.502;10.722;2023-08-06T07:56:55;17.00;1.00
14252;DHT22;7210;51.502;10.722;2023-08-06T07:59:23;16.90;1.00
14252;DHT22;7210;51.502;10.722;2023-08-06T08:01:51;17.00;1.00
14252;DHT22;7210;51.502;10.722;2023-08-06T08:04:24;16.90;1.00
14252;DHT22;7210;51.502;10.722;2023-08-06T08:06:53;17.20;1.00
14252;DHT22;7210;51.502;10.722;2023-08-06T08:09:23;17.30;1.00
14252;DHT22;7210;51.502;10.722;2023-08-06T08:11:51;17.40;1.00
14252;DHT22;7210;51.502;10.722;2023-08-06T08:14:21;17.50;1.00
14252;DHT22;7210;51.502;10.722;2023-08-06T08:16:48;17.50;1.00
14252;DHT22;7210;51.502;10.722;2023-08-06T08:19:17;17.40;1.00
14252;DHT22;7210;51.502;10.722;2023-08-06T08:21:51;17.50;1.00
14252;DHT22;7210;51.502;10.722;2023-08-06T08:24:19;17.50;1.00
14252;DHT22;7210;51.502;10.722;2023-08-06T08:26:50;17.60;1.00
14252;DHT22;7210;51.502;10.722;2023-08-06T08:29:20;17.60;1.00
14252;DHT22;7210;51.502;10.722;2023-08-06T08:31:48;17.70;1.00
14252;DHT22;7210;51.502;10.722;2023-08-06T08:34:16;17.70;1.00
14252;DHT22;7210;51.502;10.722;2023-08-06T08:36:44;17.70;1.00
14252;DHT22;7210;51.502;10.722;2023-08-06T08:39:14;17.80;1.00
14252;DHT22;7210;51.502;10.722;2023-08-06T08:41:43;17.90;1.00
14252;DHT22;7210;51.502;10.722;2023-08-06T08:44:15;17.90;1.00
14252;DHT22;7210;51.502;10.722;2023-08-06T08:46:45;18.30;1.00
14252;DHT22;7210;51.502;10.722;2023-08-06T08:49:21;18.50;1.00
14252;DHT22;7210;51.502;10.722;2023-08-06T08:51:55;18.40;1.00
14252;DHT22;7210;51.502;10.722;2023-08-06T08:54:26;18.30;1.00
14252;DHT22;7210;51.502;10.722;2023-08-06T08:56:56;18.40;1.00
14252;DHT22;7210;51.502;10.722;2023-08-06T08:59:26;18.40;1.00
14252;DHT22;7210;51.502;10.722;2023-08-06T09:01:55;18.40;1.00
14252;DHT22;7210;51.502;10.722;2023-08-06T09:04:27;18.50;1.00
14252;DHT22;7210;51.502;10.722;2023-08-06T09:06:58;18.30;1.00
14252;DHT22;7210;51.502;10.722;2023-08-06T09:09:31;18.10;1.00
14252;DHT22;7210;51.502;10.722;2023-08-06T09:12:05;18.10;1.00
14252;DHT22;7210;51.502;10.722;2023-08-06T09:14:39;18.10;1.00
14252;DHT22;7210;51.502;10.722;2023-08-06T09:17:08;18.10;1.00
14252;DHT22;7210;51.502;10.722;2023-08-06T09:19:37;18.20;1.00
14252;DHT22;7210;51.502;10.722;2023-08-06T09:22:13;18.40;1.00
14252;DHT22;7210;51.502;10.722;2023-08-06T09:24:43;18.60;1.00
14252;DHT22;7210;51.502;10.722;2023-08-06T09:27:12;18.70;1.00
14252;DHT22;7210;51.502;10.722;2023-08-06T09:29:42;18.80;1.00
14252;DHT22;7210;51.502;10.722;2023-08-06T09:32:11;19.00;1.00
14252;DHT22;7210;51.502;10.722;2023-08-06T09:34:41;19.20;1.00
14252;DHT22;7210;51.502;10.722;2023-08-06T09:37:10;19.20;1.00
14252;DHT22;7210;51.502;10.722;2023-08-06T09:39:39;19.40;1.00
14252;DHT22;7210;51.502;10.722;2023-08-06T09:42:10;19.80;1.00
14252;DHT22;7210;51.502;10.722;2023-08-06T09:44:42;20.00;1.00
14252;DHT22;7210;51.502;10.722;2023-08-06T09:47:10;20.20;1.00
14252;DHT22;7210;51.502;10.722;2023-08-06T09:49:50;20.30;1.00
14252;DHT22;7210;51.502;10.722;2023-08-06T09:52:19;20.30;1.00
14252;DHT22;7210;51.502;10.722;2023-08-06T09:54:51;20.10;1.00
14252;DHT22;7210;51.502;10.722;2023-08-06T09:57:23;20.20;1.00
14252;DHT22;7210;51.502;10.722;2023-08-06T09:59:53;20.10;1.00
14252;DHT22;7210;51.502;10.722;2023-08-06T10:02:27;20.20;1.00
14252;DHT22;7210;51.502;10.722;2023-08-06T10:04:56;20.30;1.00
14252;DHT22;7210;51.502;10.722;2023-08-06T10:07:26;20.30;1.00
14252;DHT22;7210;51.502;10.722;2023-08-06T10:09:54;20.30;1.00
14252;DHT22;7210;51.502;10.722;2023-08-06T10:12:25;20.40;1.00
14252;DHT22;7210;51.502;10.722;2023-08-06T10:15:06;20.30;1.00
14252;DHT22;7210;51.502;10.722;2023-08-06T10:17:46;20.40;1.00
14252;DHT22;7210;51.502;10.722;2023-08-06T10:20:18;20.30;1.00
14252;DHT22;7210;51.502;10.722;2023-08-06T10:23:00;20.20;1.00
14252;DHT22;7210;51.502;10.722;2023-08-06T10:25:41;20.10;1.00
14252;DHT22;7210;51.502;10.722;2023-08-06T10:28:13;20.30;1.00
14252;DHT22;7210;51.502;10.722;2023-08-06T10:30:45;20.40;1.00
14252;DHT22;7210;51.502;10.722;2023-08-06T10:33:20;20.60;1.00
14252;DHT22;7210;51.502;10.722;2023-08-06T10:35:50;20.80;1.00
14252;DHT22;7210;51.502;10.722;2023-08-06T10:38:21;20.80;1.00
14252;DHT22;7210;51.502;10.722;2023-08-06T10:41:02;21.20;1.00
14252;DHT22;7210;51.502;10.722;2023-08-06T10:43:33;21.30;1.00
14252;DHT22;7210;51.502;10.722;2023-08-06T10:46:10;21.50;1.00
14252;DHT22;7210;51.502;10.722;2023-08-06T10:48:40;21.50;1.00
14252;DHT22;7210;51.502;10.722;2023-08-06T10:51:11;21.30;1.00
14252;DHT22;7210;51.502;10.722;2023-08-06T10:53:43;21.30;1.00
14252;DHT22;7210;51.502;10.722;2023-08-06T10:56:15;21.20;1.00
14252;DHT22;7210;51.502;10.722;2023-08-06T10:58:46;21.10;1.00
14252;DHT22;7210;51.502;10.722;2023-08-06T11:01:15;20.90;1.00
14252;DHT22;7210;51.502;10.722;2023-08-06T11:03:45;20.90;1.00
14252;DHT22;7210;51.502;10.722;2023-08-06T11:06:26;21.00;1.00
14252;DHT22;7210;51.502;10.722;2023-08-06T11:08:55;21.00;1.00
14252;DHT22;7210;51.502;10.722;2023-08-06T11:11:24;21.20;1.00
14252;DHT22;7210;51.502;10.722;2023-08-06T11:13:53;21.20;1.00
14252;DHT22;7210;51.502;10.722;2023-08-06T11:16:23;21.40;1.00
14252;DHT22;7210;51.502;10.722;2023-08-06T11:18:54;21.60;1.00
14252;DHT22;7210;51.502;10.722;2023-08-06T11:21:26;21.90;1.00
14252;DHT22;7210;51.502;10.722;2023-08-06T11:23:56;22.10;1.00
14252;DHT22;7210;51.502;10.722;2023-08-06T11:26:26;22.60;1.00
14252;DHT22;7210;51.502;10.722;2023-08-06T11:28:56;22.70;1.00
14252;DHT22;7210;51.502;10.722;2023-08-06T11:31:25;22.70;1.00
14252;DHT22;7210;51.502;10.722;2023-08-06T11:33:53;23.10;1.00
14252;DHT22;7210;51.502;10.722;2023-08-06T11:36:32;23.00;1.00
14252;DHT22;7210;51.502;10.722;2023-08-06T11:39:04;23.00;1.00
14252;DHT22;7210;51.502;10.722;2023-08-06T11:41:38;23.10;1.00
14252;DHT22;7210;51.502;10.722;2023-08-06T11:44:12;23.10;1.00
14252;DHT22;7210;51.502;10.722;2023-08-06T11:46:51;23.30;1.00
14252;DHT22;7210;51.502;10.722;2023-08-06T11:49:37;23.50;1.00
14252;DHT22;7210;51.502;10.722;2023-08-06T11:52:10;23.20;1.00
14252;DHT22;7210;51.502;10.722;2023-08-06T11:54:42;23.00;1.00
14252;DHT22;7210;51.502;10.722;2023-08-06T11:57:11;22.90;1.00
14252;DHT22;7210;51.502;10.722;2023-08-06T11:59:41;23.00;1.00
14252;DHT22;7210;51.502;10.722;2023-08-06T12:02:09;23.00;1.00
14252;DHT22;7210;51.502;10.722;2023-08-06T12:05:00;23.10;1.00
14252;DHT22;7210;51.502;10.722;2023-08-06T12:07:31;23.50;1.00
14252;DHT22;7210;51.502;10.722;2023-08-06T12:10:00;23.40;1.00
14252;DHT22;7210;51.502;10.722;2023-08-06T12:12:29;23.60;1.00
14252;DHT22;7210;51.502;10.722;2023-08-06T12:14:58;23.70;1.00
14252;DHT22;7210;51.502;10.722;2023-08-06T12:17:27;23.70;1.00
14252;DHT22;7210;51.502;10.722;2023-08-06T12:19:55;23.60;1.00
14252;DHT22;7210;51.502;10.722;2023-08-06T12:22:23;23.70;1.00
14252;DHT22;7210;51.502;10.722;2023-08-06T12:24:52;23.80;1.00
14252;DHT22;7210;51.502;10.722;2023-08-06T12:27:20;24.20;1.00
14252;DHT22;7210;51.502;10.722;2023-08-06T12:29:48;24.40;1.00
14252;DHT22;7210;51.502;10.722;2023-08-06T12:32:19;24.40;1.00
14252;DHT22;7210;51.502;10.722;2023-08-06T12:34:48;24.60;1.00
14252;DHT22;7210;51.502;10.722;2023-08-06T12:37:16;24.60;1.00
14252;DHT22;7210;51.502;10.722;2023-08-06T12:39:44;24.50;1.00
14252;DHT22;7210;51.502;10.722;2023-08-06T12:42:13;24.00;1.00
14252;DHT22;7210;51.502;10.722;2023-08-06T12:44:41;23.70;1.00
14252;DHT22;7210;51.502;10.722;2023-08-06T12:47:11;23.60;1.00
14252;DHT22;7210;51.502;10.722;2023-08-06T12:49:40;23.40;1.00
14252;DHT22;7210;51.502;10.722;2023-08-06T12:52:14;23.00;1.00
14252;DHT22;7210;51.502;10.722;2023-08-06T12:54:42;22.90;1.00
14252;DHT22;7210;51.502;10.722;2023-08-06T12:57:12;22.70;1.00
14252;DHT22;7210;51.502;10.722;2023-08-06T12:59:47;22.70;1.00
14252;DHT22;7210;51.502;10.722;2023-08-06T13:02:21;22.80;1.00
14252;DHT22;7210;51.502;10.722;2023-08-06T13:04:58;22.90;1.00
14252;DHT22;7210;51.502;10.722;2023-08-06T13:07:38;23.00;1.00
14252;DHT22;7210;51.502;10.722;2023-08-06T13:10:20;23.30;1.00
14252;DHT22;7210;51.502;10.722;2023-08-06T13:12:48;23.80;1.00
14252;DHT22;7210;51.502;10.722;2023-08-06T13:15:16;23.90;1.00
14252;DHT22;7210;51.502;10.722;2023-08-06T13:17:46;23.90;1.00
14252;DHT22;7210;51.502;10.722;2023-08-06T13:20:15;24.00;1.00
14252;DHT22;7210;51.502;10.722;2023-08-06T13:22:45;24.20;1.00
14252;DHT22;7210;51.502;10.722;2023-08-06T13:25:20;24.10;1.00
14252;DHT22;7210;51.502;10.722;2023-08-06T13:27:47;24.10;1.00
14252;DHT22;7210;51.502;10.722;2023-08-06T13:30:15;24.10;1.00
14252;DHT22;7210;51.502;10.722;2023-08-06T13:32:43;23.90;1.00
14252;DHT22;7210;51.502;10.722;2023-08-06T13:35:11;23.50;1.00
14252;DHT22;7210;51.502;10.722;2023-08-06T13:37:41;23.30;1.00
14252;DHT22;7210;51.502;10.722;2023-08-06T13:40:14;23.00;1.00
14252;DHT22;7210;51.502;10.722;2023-08-06T13:42:43;22.90;1.00
14252;DHT22;7210;51.502;10.722;2023-08-06T13:45:11;22.70;1.00
14252;DHT22;7210;51.502;10.722;2023-08-06T13:47:41;22.70;1.00
14252;DHT22;7210;51.502;10.722;2023-08-06T13:50:14;22.60;1.00
14252;DHT22;7210;51.502;10.722;2023-08-06T13:52:45;22.60;1.00
14252;DHT22;7210;51.502;10.722;2023-08-06T13:55:13;22.50;1.00
14252;DHT22;7210;51.502;10.722;2023-08-06T13:57:42;22.40;1.00
14252;DHT22;7210;51.502;10.722;2023-08-06T14:00:11;22.30;1.00
14252;DHT22;7210;51.502;10.722;2023-08-06T14:02:42;22.20;1.00
14252;DHT22;7210;51.502;10.722;2023-08-06T14:05:11;22.00;1.00
14252;DHT22;7210;51.502;10.722;2023-08-06T14:07:46;21.80;1.00
14252;DHT22;7210;51.502;10.722;2023-08-06T14:10:14;21.40;1.00
14252;DHT22;7210;51.502;10.722;2023-08-06T14:12:42;20.70;1.00
14252;DHT22;7210;51.502;10.722;2023-08-06T14:15:10;20.00;1.00
14252;DHT22;7210;51.502;10.722;2023-08-06T14:17:38;19.40;1.00
14252;DHT22;7210;51.502;10.722;2023-08-06T14:20:07;19.00;1.00
14252;DHT22;7210;51.502;10.722;2023-08-06T14:22:38;18.60;1.00
14252;DHT22;7210;51.502;10.722;2023-08-06T14:25:09;18.30;1.00
14252;DHT22;7210;51.502;10.722;2023-08-06T14:27:37;18.10;1.00
14252;DHT22;7210;51.502;10.722;2023-08-06T14:30:06;18.00;1.00
14252;DHT22;7210;51.502;10.722;2023-08-06T14:32:38;17.90;1.00
14252;DHT22;7210;51.502;10.722;2023-08-06T14:35:08;17.90;1.00
14252;DHT22;7210;51.502;10.722;2023-08-06T14:37:36;17.90;1.00
14252;DHT22;7210;51.502;10.722;2023-08-06T14:40:08;17.80;1.00
14252;DHT22;7210;51.502;10.722;2023-08-06T14:42:37;17.80;1.00
14252;DHT22;7210;51.502;10.722;2023-08-06T14:45:06;17.90;1.00
14252;DHT22;7210;51.502;10.722;2023-08-06T14:47:35;17.80;1.00
14252;DHT22;7210;51.502;10.722;2023-08-06T14:50:02;17.90;1.00
14252;DHT22;7210;51.502;10.722;2023-08-06T14:52:32;17.90;1.00
14252;DHT22;7210;51.502;10.722;2023-08-06T14:55:00;17.90;1.00
14252;DHT22;7210;51.502;10.722;2023-08-06T14:57:31;17.80;1.00
14252;DHT22;7210;51.502;10.722;2023-08-06T15:00:00;17.80;1.00
14252;DHT22;7210;51.502;10.722;2023-08-06T15:02:29;17.80;1.00
14252;DHT22;7210;51.502;10.722;2023-08-06T15:05:02;17.80;1.00
14252;DHT22;7210;51.502;10.722;2023-08-06T15:07:31;17.90;1.00
14252;DHT22;7210;51.502;10.722;2023-08-06T15:10:01;17.90;1.00
14252;DHT22;7210;51.502;10.722;2023-08-06T15:12:30;18.00;1.00
14252;DHT22;7210;51.502;10.722;2023-08-06T15:14:58;18.00;1.00
14252;DHT22;7210;51.502;10.722;2023-08-06T15:17:27;18.00;1.00
14252;DHT22;7210;51.502;10.722;2023-08-06T15:19:56;18.00;1.00
14252;DHT22;7210;51.502;10.722;2023-08-06T15:22:26;18.00;1.00
14252;DHT22;7210;51.502;10.722;2023-08-06T15:24:55;18.10;1.00
14252;DHT22;7210;51.502;10.722;2023-08-06T15:27:24;18.20;1.00
14252;DHT22;7210;51.502;10.722;2023-08-06T15:29:53;18.30;1.00
14252;DHT22;7210;51.502;10.722;2023-08-06T15:32:22;18.40;1.00
14252;DHT22;7210;51.502;10.722;2023-08-06T15:34:51;18.50;1.00
14252;DHT22;7210;51.502;10.722;2023-08-06T15:37:19;18.60;1.00
14252;DHT22;7210;51.502;10.722;2023-08-06T15:39:47;18.60;1.00
14252;DHT22;7210;51.502;10.722;2023-08-06T15:42:14;18.70;1.00
14252;DHT22;7210;51.502;10.722;2023-08-06T15:44:43;18.70;1.00
14252;DHT22;7210;51.502;10.722;2023-08-06T15:47:12;18.60;1.00
14252;DHT22;7210;51.502;10.722;2023-08-06T15:49:40;18.50;1.00
14252;DHT22;7210;51.502;10.722;2023-08-06T15:52:14;18.40;1.00
14252;DHT22;7210;51.502;10.722;2023-08-06T15:54:43;18.40;1.00
14252;DHT22;7210;51.502;10.722;2023-08-06T15:57:12;18.40;1.00